createdAt,value
2022-12-17T00:01:06.240Z,114.57
2022-12-17T00:03:52.146Z,103.23
2022-12-17T00:06:38.450Z,111.23
2022-12-17T00:09:24.383Z,108.33
2022-12-17T00:12:10.460Z,103.00
2022-12-17T00:15:02.935Z,125.43
2022-12-17T00:17:49.429Z,101.57
2022-12-17T00:20:35.470Z,119.07
2022-12-17T00:23:22.096Z,109.73
2022-12-17T00:26:09.506Z,107.97
2022-12-17T00:29:03.964Z,118.93
2022-12-17T00:31:50.611Z,112.63
2022-12-17T00:34:36.529Z,104.07
2022-12-17T00:37:22.628Z,104.60
2022-12-17T00:40:08.610Z,102.33
2022-12-17T00:42:56.363Z,94.43
2022-12-17T00:45:42.132Z,86.43
2022-12-17T00:48:25.606Z,112.37
2022-12-17T00:51:11.726Z,99.87
2022-12-17T00:53:53.792Z,102.60
2022-12-17T00:56:41.083Z,116.10
2022-12-17T00:59:27.078Z,116.97
2022-12-17T01:02:13.233Z,115.37
2022-12-17T01:05:00.456Z,99.90
2022-12-17T01:07:46.446Z,104.40
2022-12-17T01:10:32.536Z,105.10
2022-12-17T01:13:18.717Z,99.07
2022-12-17T01:16:04.804Z,105.10
2022-12-17T01:18:50.793Z,110.17
2022-12-17T01:21:37.901Z,91.77
2022-12-17T01:24:24.291Z,92.40
2022-12-17T01:27:09.542Z,87.37
2022-12-17T01:29:55.674Z,77.67
2022-12-17T01:32:41.733Z,80.30
2022-12-17T01:35:27.886Z,97.47
2022-12-17T01:38:14.943Z,98.87
2022-12-17T01:41:00.995Z,78.60
2022-12-17T01:43:51.098Z,78.47
2022-12-17T01:46:37.183Z,83.60
2022-12-17T01:49:28.390Z,77.70
2022-12-17T01:52:14.800Z,79.53
2022-12-17T01:55:02.039Z,75.20
2022-12-17T01:57:48.105Z,83.93
2022-12-17T02:00:35.034Z,83.77
2022-12-17T02:03:21.308Z,56.93
2022-12-17T02:06:11.415Z,63.43
2022-12-17T02:09:00.514Z,65.23
2022-12-17T02:11:52.083Z,64.33
2022-12-17T02:14:42.133Z,61.47
2022-12-17T02:17:26.569Z,60.80
2022-12-17T02:20:19.378Z,67.47
2022-12-17T02:23:12.307Z,59.20
2022-12-17T02:26:02.622Z,50.10
2022-12-17T02:28:50.859Z,48.43
2022-12-17T02:31:36.776Z,49.57
2022-12-17T02:34:22.550Z,47.43
2022-12-17T02:37:08.618Z,38.83
2022-12-17T02:40:02.816Z,53.53
2022-12-17T02:42:49.283Z,48.30
2022-12-17T02:45:43.097Z,44.63
2022-12-17T02:48:29.644Z,49.23
2022-12-17T02:51:16.053Z,40.50
2022-12-17T02:54:02.578Z,40.47
2022-12-17T02:56:48.654Z,40.03
2022-12-17T02:59:34.636Z,45.20
2022-12-17T03:02:22.110Z,34.67
2022-12-17T03:05:43.351Z,36.37
2022-12-17T03:08:22.072Z,32.77
2022-12-17T03:11:08.027Z,39.73
2022-12-17T03:13:54.055Z,37.07
2022-12-17T03:16:39.792Z,29.10
2022-12-17T03:19:28.942Z,46.13
2022-12-17T03:22:15.853Z,35.03
2022-12-17T03:25:01.847Z,37.30
2022-12-17T03:27:47.995Z,30.50
2022-12-17T03:30:36.382Z,37.60
2022-12-17T03:33:23.170Z,33.17
2022-12-17T03:36:13.742Z,37.63
2022-12-17T03:38:59.726Z,43.33
2022-12-17T03:41:45.725Z,35.00
2022-12-17T03:44:31.869Z,31.83
2022-12-17T03:47:18.021Z,33.60
2022-12-17T03:50:04.167Z,39.30
2022-12-17T03:52:53.524Z,44.20
2022-12-17T03:55:39.678Z,39.23
2022-12-17T03:58:25.762Z,28.80
2022-12-17T04:01:11.888Z,35.03
2022-12-17T04:03:58.018Z,29.00
2022-12-17T04:06:44.273Z,31.80
2022-12-17T04:09:31.591Z,28.60
2022-12-17T04:12:21.923Z,27.20
2022-12-17T04:15:07.922Z,22.63
2022-12-17T04:17:53.922Z,23.87
2022-12-17T04:20:40.009Z,29.97
2022-12-17T04:23:26.161Z,26.73
2022-12-17T04:26:13.546Z,27.47
2022-12-17T04:28:59.447Z,30.20
2022-12-17T04:31:45.516Z,28.93
2022-12-17T04:34:31.440Z,29.33
2022-12-17T04:37:17.394Z,27.60
2022-12-17T04:40:03.621Z,30.70
2022-12-17T04:42:50.940Z,28.10
2022-12-17T04:45:37.135Z,20.83
2022-12-17T04:48:23.623Z,24.77
2022-12-17T04:51:09.603Z,26.40
2022-12-17T04:53:55.654Z,24.60
2022-12-17T04:56:41.733Z,24.43
2022-12-17T04:59:28.809Z,25.70
2022-12-17T05:02:14.910Z,29.63
2022-12-17T05:05:00.795Z,30.33
2022-12-17T05:07:46.982Z,23.13
2022-12-17T05:10:33.001Z,30.70
2022-12-17T05:13:19.632Z,27.50
2022-12-17T05:16:06.888Z,33.00
2022-12-17T05:18:52.830Z,27.23
2022-12-17T05:21:38.795Z,26.13
2022-12-17T05:24:24.760Z,32.67
2022-12-17T05:27:10.733Z,28.60
2022-12-17T05:29:56.632Z,34.97
2022-12-17T05:32:44.013Z,40.60
2022-12-17T05:35:30.084Z,50.77
2022-12-17T05:38:21.556Z,41.37
2022-12-17T05:41:07.642Z,49.83
2022-12-17T05:43:53.826Z,44.57
2022-12-17T05:46:39.750Z,41.97
2022-12-17T05:49:29.643Z,38.90
2022-12-17T05:52:15.723Z,46.50
2022-12-17T05:55:01.613Z,47.73
2022-12-17T05:57:54.687Z,43.87
2022-12-17T06:00:42.602Z,43.50
2022-12-17T06:03:29.198Z,48.33
2022-12-17T06:06:16.856Z,43.93
2022-12-17T06:09:02.833Z,33.77
2022-12-17T06:11:48.900Z,44.97
2022-12-17T06:14:35.049Z,54.23
2022-12-17T06:17:21.005Z,48.63
2022-12-17T06:20:07.197Z,52.40
2022-12-17T06:22:54.643Z,44.70
2022-12-17T06:25:55.194Z,48.37
2022-12-17T06:28:41.067Z,47.67
2022-12-17T06:31:26.660Z,46.57
2022-12-17T06:34:12.720Z,52.27
2022-12-17T06:36:58.759Z,44.50
2022-12-17T06:39:46.126Z,51.77
2022-12-17T06:42:32.159Z,50.47
2022-12-17T06:45:18.118Z,43.13
2022-12-17T06:48:04.129Z,52.30
2022-12-17T06:50:50.097Z,49.67
2022-12-17T06:53:36.314Z,62.50
2022-12-17T06:56:23.882Z,44.77
2022-12-17T06:59:09.817Z,50.67
2022-12-17T07:01:55.848Z,41.13
2022-12-17T07:04:41.769Z,48.13
2022-12-17T07:07:27.892Z,46.60
2022-12-17T07:10:14.470Z,38.53
2022-12-17T07:13:01.930Z,26.17
2022-12-17T07:15:47.779Z,39.23
2022-12-17T07:18:33.650Z,39.27
2022-12-17T07:21:19.784Z,34.60
2022-12-17T07:24:05.518Z,30.30
2022-12-17T07:26:51.463Z,34.87
2022-12-17T07:29:38.860Z,30.33
2022-12-17T07:32:24.671Z,35.77
2022-12-17T07:35:10.626Z,38.10
2022-12-17T07:37:56.832Z,31.87
2022-12-17T07:40:42.739Z,27.83
2022-12-17T07:43:31.290Z,35.80
2022-12-17T07:46:21.460Z,29.73
2022-12-17T07:49:07.675Z,31.37
2022-12-17T07:51:53.620Z,27.97
2022-12-17T07:54:39.643Z,24.40
2022-12-17T07:57:25.640Z,26.50
2022-12-17T08:00:11.568Z,24.50
2022-12-17T08:02:59.172Z,30.33
2022-12-17T08:05:46.793Z,28.60
2022-12-17T08:08:33.371Z,26.57
2022-12-17T08:11:19.616Z,21.13
2022-12-17T08:14:05.366Z,21.87
2022-12-17T08:16:51.499Z,22.43
2022-12-17T08:19:39.422Z,18.30
2022-12-17T08:22:25.582Z,24.23
2022-12-17T08:25:11.284Z,23.37
2022-12-17T08:27:57.364Z,26.67
2022-12-17T08:30:43.500Z,17.40
2022-12-17T08:33:29.594Z,18.10
2022-12-17T08:36:17.290Z,21.50
2022-12-17T08:39:03.353Z,19.13
2022-12-17T08:41:54.189Z,18.40
2022-12-17T08:44:41.357Z,20.00
2022-12-17T08:47:27.489Z,22.57
2022-12-17T08:50:13.558Z,19.93
2022-12-17T08:53:02.711Z,19.80
2022-12-17T08:55:46.885Z,21.53
2022-12-17T08:58:32.930Z,18.33
2022-12-17T09:01:19.614Z,22.27
2022-12-17T09:04:07.005Z,20.40
2022-12-17T09:06:52.741Z,22.30
2022-12-17T09:09:39.951Z,20.10
2022-12-17T09:12:25.912Z,17.40
2022-12-17T09:15:11.962Z,18.10
2022-12-17T09:17:58.111Z,15.53
2022-12-17T09:20:52.653Z,17.80
2022-12-17T09:23:39.128Z,19.17
2022-12-17T09:26:26.852Z,22.73
2022-12-17T09:29:08.977Z,19.43
2022-12-17T09:31:55.017Z,15.13
2022-12-17T09:34:41.032Z,17.43
2022-12-17T09:37:27.033Z,16.63
2022-12-17T09:40:18.105Z,20.23
2022-12-17T09:43:08.976Z,14.57
2022-12-17T09:45:57.836Z,13.50
2022-12-17T09:48:46.077Z,23.43
2022-12-17T09:51:39.190Z,17.20
2022-12-17T09:54:26.253Z,18.50
2022-12-17T09:57:12.070Z,18.57
2022-12-17T09:59:59.199Z,18.33
2022-12-17T10:02:45.681Z,15.40
2022-12-17T10:05:33.712Z,15.30
2022-12-17T10:08:20.413Z,18.57
2022-12-17T10:11:06.470Z,16.03
2022-12-17T10:13:52.441Z,12.60
2022-12-17T10:16:43.553Z,23.53
2022-12-17T10:19:32.941Z,26.07
2022-12-17T10:22:28.504Z,18.93
2022-12-17T10:25:14.462Z,25.37
2022-12-17T10:28:00.558Z,28.70
2022-12-17T10:30:47.457Z,25.97
2022-12-17T10:33:38.145Z,24.70
2022-12-17T10:36:25.289Z,22.47
2022-12-17T10:39:14.547Z,26.33
2022-12-17T10:42:01.060Z,19.70
2022-12-17T10:44:47.610Z,19.53
2022-12-17T10:47:34.592Z,23.63
2022-12-17T10:50:23.374Z,18.73
2022-12-17T10:53:08.352Z,15.77
2022-12-17T10:55:54.827Z,25.27
2022-12-17T10:58:41.996Z,15.07
2022-12-17T11:01:30.477Z,16.33
2022-12-17T11:04:19.836Z,14.10
2022-12-17T11:07:08.799Z,16.63
2022-12-17T11:09:58.854Z,23.30
2022-12-17T11:12:51.263Z,24.90
2022-12-17T11:15:39.860Z,26.37
2022-12-17T11:18:25.758Z,30.20
2022-12-17T11:21:14.526Z,22.73
2022-12-17T11:24:03.883Z,30.00
2022-12-17T11:26:51.983Z,32.37
2022-12-17T11:29:37.985Z,21.80
2022-12-17T11:32:37.987Z,30.10
2022-12-17T11:35:26.856Z,18.10
2022-12-17T11:38:18.292Z,22.97
2022-12-17T11:41:15.814Z,23.80
2022-12-17T11:44:04.904Z,18.30
2022-12-17T11:46:55.034Z,18.50
2022-12-17T11:49:47.067Z,24.57
2022-12-17T11:52:39.415Z,14.83
2022-12-17T11:55:29.622Z,21.73
2022-12-17T11:58:19.403Z,20.23
2022-12-17T12:01:09.216Z,27.20
2022-12-17T12:04:01.646Z,22.57
2022-12-17T12:06:52.310Z,21.17
2022-12-17T12:09:41.743Z,26.20
2022-12-17T12:12:34.351Z,17.30
2022-12-17T12:15:25.361Z,21.90
2022-12-17T12:18:13.780Z,22.07
2022-12-17T12:21:06.134Z,25.17
2022-12-17T12:24:01.454Z,30.33
2022-12-17T12:26:50.371Z,26.70
2022-12-17T12:29:45.476Z,30.17
2022-12-17T12:32:35.228Z,23.03
2022-12-17T12:35:23.031Z,22.77
2022-12-17T12:38:09.107Z,18.13
2022-12-17T12:40:57.362Z,23.53
2022-12-17T12:43:45.780Z,17.10
2022-12-17T12:46:35.537Z,22.67
2022-12-17T12:49:28.016Z,20.37
2022-12-17T12:52:15.527Z,23.60
2022-12-17T12:55:23.043Z,21.43
2022-12-17T12:58:16.390Z,26.10
2022-12-17T13:01:12.298Z,22.37
2022-12-17T13:03:59.765Z,27.43
2022-12-17T13:06:43.320Z,18.73
2022-12-17T13:09:30.693Z,23.17
2022-12-17T13:12:26.437Z,12.47
2022-12-17T13:14:56.975Z,13.27
2022-12-17T13:17:33.754Z,10.57
2022-12-17T13:20:03.501Z,9.80
2022-12-17T13:22:34.574Z,10.83
2022-12-17T13:25:16.974Z,14.10
2022-12-17T13:27:45.300Z,20.03
2022-12-17T13:30:21.595Z,16.80
2022-12-17T13:32:52.476Z,17.77
2022-12-17T13:35:23.531Z,17.43
2022-12-17T13:37:57.483Z,7.90
2022-12-17T13:40:32.266Z,8.97
2022-12-17T13:43:00.694Z,8.07
2022-12-17T13:45:29.383Z,9.97
2022-12-17T13:47:58.895Z,8.00
2022-12-17T13:50:36.489Z,10.00
2022-12-17T13:53:13.366Z,7.37
2022-12-17T13:55:41.838Z,6.50
2022-12-17T13:58:21.943Z,7.70
2022-12-17T14:00:50.252Z,8.37
2022-12-17T14:03:37.131Z,8.40
2022-12-17T14:06:11.274Z,6.27
2022-12-17T14:08:41.535Z,11.77
2022-12-17T14:11:27.625Z,12.30
2022-12-17T14:13:55.811Z,8.27
2022-12-17T14:16:24.388Z,9.90
2022-12-17T14:18:53.918Z,9.00
2022-12-17T14:21:26.794Z,8.27
2022-12-17T14:23:57.727Z,13.50
2022-12-17T14:26:25.982Z,11.20
2022-12-17T14:28:55.015Z,8.50
2022-12-17T14:31:27.049Z,8.30
2022-12-17T14:34:07.174Z,13.13
2022-12-17T14:36:35.725Z,7.97
2022-12-17T14:39:11.054Z,8.83
2022-12-17T14:41:57.809Z,8.87
2022-12-17T14:44:27.669Z,8.00
2022-12-17T14:46:57.393Z,11.70
2022-12-17T14:49:25.691Z,13.23
2022-12-17T14:51:53.966Z,12.07
2022-12-17T14:54:30.810Z,18.53
2022-12-17T14:56:59.975Z,19.30
2022-12-17T14:59:32.361Z,26.60
2022-12-17T15:02:01.589Z,13.50
2022-12-17T15:04:29.958Z,15.20
2022-12-17T15:06:58.397Z,21.23
2022-12-17T15:09:27.931Z,22.80
2022-12-17T15:11:57.239Z,19.30
2022-12-17T15:14:25.539Z,26.23
2022-12-17T15:16:55.388Z,29.33
2022-12-17T15:19:23.795Z,21.00
2022-12-17T15:21:52.115Z,17.53
2022-12-17T15:24:21.344Z,21.87
2022-12-17T15:26:51.333Z,21.90
2022-12-17T15:29:19.530Z,22.73
2022-12-17T15:31:47.871Z,21.53
2022-12-17T15:34:17.212Z,23.37
2022-12-17T15:36:45.402Z,23.30
2022-12-17T15:39:13.618Z,22.97
2022-12-17T15:41:59.632Z,21.90
2022-12-17T15:44:29.199Z,19.23
2022-12-17T15:47:00.496Z,20.73
2022-12-17T15:49:29.173Z,19.67
2022-12-17T15:51:57.402Z,22.47
2022-12-17T15:54:26.209Z,19.50
2022-12-17T15:56:55.050Z,24.77
2022-12-17T15:59:23.303Z,21.53
2022-12-17T16:01:52.961Z,25.47
2022-12-17T16:04:24.928Z,23.23
2022-12-17T16:06:55.813Z,27.03
2022-12-17T16:09:26.836Z,23.00
2022-12-17T16:11:56.114Z,26.77
2022-12-17T16:14:24.553Z,25.20
2022-12-17T16:16:54.171Z,25.33
2022-12-17T16:19:25.333Z,20.57
2022-12-17T16:21:53.524Z,20.00
2022-12-17T16:24:23.328Z,27.57
2022-12-17T16:26:51.527Z,28.67
2022-12-17T16:29:19.766Z,22.97
2022-12-17T16:31:48.025Z,25.07
2022-12-17T16:34:18.230Z,26.83
2022-12-17T16:36:46.420Z,24.40
2022-12-17T16:39:17.294Z,24.77
2022-12-17T16:41:45.977Z,28.03
2022-12-17T16:44:14.295Z,24.73
2022-12-17T16:46:43.542Z,30.23
2022-12-17T16:49:13.568Z,22.70
2022-12-17T16:51:43.255Z,25.27
2022-12-17T16:54:14.788Z,23.07
2022-12-17T16:56:43.774Z,39.50
2022-12-17T16:59:13.305Z,30.23
2022-12-17T17:01:42.440Z,28.17
2022-12-17T17:04:11.334Z,23.50
2022-12-17T17:06:43.461Z,21.10
2022-12-17T17:09:13.623Z,18.40
2022-12-17T17:11:44.815Z,22.07
2022-12-17T17:14:16.670Z,16.37
2022-12-17T17:16:44.978Z,16.43
2022-12-17T17:19:13.265Z,20.40
2022-12-17T17:21:42.491Z,18.40
2022-12-17T17:24:20.816Z,14.70
2022-12-17T17:26:50.247Z,16.20
2022-12-17T17:29:20.967Z,20.13
2022-12-17T17:34:40.571Z,20.00
2022-12-17T17:37:08.887Z,20.97
2022-12-17T17:39:38.504Z,15.77
2022-12-17T17:42:07.050Z,20.47
2022-12-17T17:44:35.567Z,20.90
2022-12-17T17:47:03.923Z,17.33
2022-12-17T17:49:32.181Z,14.30
2022-12-17T17:52:11.405Z,16.07
2022-12-17T17:54:41.618Z,13.70
2022-12-17T17:57:10.656Z,17.70
2022-12-17T17:59:40.291Z,12.30
2022-12-17T18:02:08.950Z,13.87
2022-12-17T18:04:37.533Z,12.67
2022-12-17T18:09:55.686Z,14.60
2022-12-17T18:12:41.818Z,14.60
2022-12-17T18:15:15.225Z,13.20
2022-12-17T18:17:43.815Z,12.30
2022-12-17T18:20:12.610Z,15.37
2022-12-17T18:22:40.844Z,16.50
2022-12-17T18:25:10.702Z,12.67
2022-12-17T18:27:39.063Z,16.63
2022-12-17T18:30:07.947Z,15.83
2022-12-17T18:32:36.188Z,11.23
2022-12-17T18:35:04.522Z,13.87
2022-12-17T18:37:32.818Z,22.43
2022-12-17T18:40:01.069Z,17.13
2022-12-17T18:42:48.136Z,17.03
2022-12-17T18:45:16.576Z,16.00
2022-12-17T18:47:45.123Z,26.70
2022-12-17T18:50:13.704Z,27.23
2022-12-17T18:52:42.226Z,22.17
2022-12-17T18:55:13.276Z,24.33
2022-12-17T18:57:42.859Z,24.47
2022-12-17T19:00:12.051Z,18.50
2022-12-17T19:02:40.593Z,18.90
2022-12-17T19:05:09.370Z,23.73
2022-12-17T19:07:37.753Z,23.27
2022-12-17T19:10:06.507Z,23.40
2022-12-17T19:12:34.817Z,25.80
2022-12-17T19:15:04.489Z,31.37
2022-12-17T19:17:32.738Z,22.03
2022-12-17T19:20:01.039Z,23.10
2022-12-17T19:22:29.316Z,30.90
2022-12-17T19:24:57.612Z,22.00
2022-12-17T19:27:25.884Z,26.03
2022-12-17T19:29:56.372Z,30.60
2022-12-17T19:32:26.001Z,23.03
2022-12-17T19:34:54.177Z,22.60
2022-12-17T19:37:22.391Z,27.33
2022-12-17T19:39:50.731Z,24.80
2022-12-17T19:42:26.906Z,25.40
2022-12-17T19:44:56.924Z,24.07
2022-12-17T19:47:26.701Z,24.63
2022-12-17T19:49:55.119Z,30.20
2022-12-17T19:52:24.111Z,24.40
2022-12-17T19:54:52.341Z,25.40
2022-12-17T19:57:20.745Z,29.07
2022-12-17T19:59:49.942Z,35.00
2022-12-17T20:02:19.833Z,24.77
2022-12-17T20:04:49.576Z,28.90
2022-12-17T20:07:17.772Z,20.37
2022-12-17T20:09:48.070Z,27.40
2022-12-17T20:12:16.437Z,26.93
2022-12-17T20:14:44.947Z,27.53
2022-12-17T20:17:13.134Z,29.73
2022-12-17T20:19:42.130Z,32.00
2022-12-17T20:22:12.337Z,28.77
2022-12-17T20:24:40.572Z,27.50
2022-12-17T20:27:08.928Z,31.60
2022-12-17T20:29:37.257Z,30.17
2022-12-17T20:32:05.732Z,43.40
2022-12-17T20:34:34.062Z,46.80
2022-12-17T20:37:02.398Z,44.17
2022-12-17T20:39:32.231Z,72.77
2022-12-17T20:42:01.572Z,76.37
2022-12-17T20:44:30.973Z,51.50
2022-12-17T20:47:06.439Z,65.87
2022-12-17T20:49:38.754Z,64.80
2022-12-17T20:52:06.980Z,60.77
2022-12-17T20:54:37.912Z,56.63
2022-12-17T20:57:08.326Z,68.20
2022-12-17T20:59:36.588Z,67.43
2022-12-17T21:02:05.117Z,71.03
2022-12-17T21:04:33.477Z,66.90
2022-12-17T21:07:01.768Z,62.77
2022-12-17T21:09:30.061Z,51.60
2022-12-17T21:12:00.088Z,42.30
2022-12-17T21:14:35.315Z,40.33
2022-12-17T21:17:05.416Z,34.20
2022-12-17T21:19:33.963Z,25.30
2022-12-17T21:22:03.276Z,27.60
2022-12-17T21:24:31.558Z,32.63
2022-12-17T21:27:01.233Z,27.47
2022-12-17T21:29:29.513Z,26.33
2022-12-17T21:32:03.804Z,23.13
2022-12-17T21:34:32.541Z,27.10
2022-12-17T21:37:00.812Z,23.57
2022-12-17T21:39:29.521Z,24.83
2022-12-17T21:42:15.722Z,28.90
2022-12-17T21:44:50.413Z,21.47
2022-12-17T21:47:18.745Z,22.80
2022-12-17T21:49:46.968Z,25.67
2022-12-17T21:52:24.217Z,21.80
2022-12-17T21:54:52.451Z,24.77
2022-12-17T21:57:20.706Z,20.97
2022-12-17T21:59:50.337Z,25.20
2022-12-17T22:02:21.828Z,30.30
2022-12-17T22:04:50.750Z,26.97
2022-12-17T22:07:22.917Z,26.67
2022-12-17T22:10:04.362Z,26.93
2022-12-17T22:13:02.411Z,30.00
2022-12-17T22:15:35.710Z,24.00
2022-12-17T22:18:16.811Z,27.57
2022-12-17T22:20:45.068Z,28.27
2022-12-17T22:23:13.474Z,23.33
2022-12-17T22:25:42.296Z,25.00
2022-12-17T22:28:10.554Z,20.57
2022-12-17T22:30:58.019Z,18.47
2022-12-17T22:33:55.092Z,14.40
2022-12-17T22:39:25.642Z,19.43
2022-12-17T22:42:41.469Z,16.23
2022-12-17T22:44:40.696Z,18.83
2022-12-17T22:45:09.128Z,23.93
2022-12-17T22:47:39.660Z,27.70
2022-12-17T22:50:08.274Z,23.47
2022-12-17T22:52:37.209Z,26.27
2022-12-17T22:55:06.463Z,20.40
2022-12-17T22:57:38.260Z,24.73
2022-12-17T23:00:11.677Z,24.83
2022-12-17T23:02:41.363Z,23.33
2022-12-17T23:05:09.954Z,21.03
2022-12-17T23:07:38.172Z,15.60
2022-12-17T23:10:06.634Z,22.60
2022-12-17T23:12:51.599Z,20.87
2022-12-17T23:15:20.294Z,20.00
2022-12-17T23:17:49.937Z,19.70
2022-12-17T23:20:18.259Z,21.33
2022-12-17T23:22:46.565Z,20.67
2022-12-17T23:25:16.164Z,19.13
2022-12-17T23:27:44.912Z,20.70
2022-12-17T23:30:14.120Z,17.27
2022-12-17T23:32:42.451Z,20.00
2022-12-17T23:35:12.899Z,20.73
2022-12-17T23:37:41.386Z,20.20
2022-12-17T23:40:13.399Z,20.23
2022-12-17T23:42:41.968Z,16.80
2022-12-17T23:45:11.816Z,18.20
2022-12-17T23:47:41.028Z,15.00
2022-12-17T23:50:11.059Z,12.70
2022-12-17T23:52:41.078Z,15.02
2022-12-17T23:55:11.156Z,16.60
2022-12-17T23:57:39.411Z,13.70
